Time;durP1;ratioP1;P1;durP2;ratioP2;P2;SDS_P1;SDS_P2;PMS_P1;PMS_P2;Temp;Humidity;BMP_temperature;BMP_pressure;BME280_temperature;BME280_humidity;BME280_pressure;Samples;Min_cycle;Max_cycle;Signal;HPM_P1;HPM_P2
2021/03/02 07:26:11;;;;;;;51.60;31.50;;;;;;;1.65;80.61;99216.03;1843100;76;28230;-61
2021/03/02 07:28:39;;;;;;;34.50;21.35;;;;;;;1.65;80.58;99214.70;1812834;78;21042;-64
2021/03/02 07:31:11;;;;;;;31.50;22.90;;;;;;;1.74;80.01;99217.44;1777984;79;21453;-61
2021/03/02 07:33:45;;;;;;;;;;;;;;;1.76;79.83;99220.69;1811803;79;21018;-63
2021/03/02 07:36:14;;;;;;;31.60;22.70;;;;;;;1.83;79.73;99236.03;1817662;79;20125;-62
2021/03/02 07:38:45;;;;;;;33.88;23.60;;;;;;;1.91;79.44;99239.77;1809991;78;20951;-62
2021/03/02 07:41:14;;;;;;;34.88;25.35;;;;;;;1.98;78.98;99241.89;1772331;79;21160;-59
2021/03/02 07:43:42;;;;;;;39.92;25.60;;;;;;;2.04;79.05;99237.13;1760290;79;22213;-60
2021/03/02 07:46:40;;;;;;;32.53;24.07;;;;;;;2.15;78.81;99235.67;1816580;79;21041;-60
2021/03/02 07:49:29;;;;;;;30.48;22.77;;;;;;;2.25;78.55;99237.39;1816971;79;21514;-61
2021/03/02 07:52:03;;;;;;;32.13;22.60;;;;;;;2.34;77.48;99242.75;1795278;77;21963;-61
2021/03/02 07:54:34;;;;;;;30.30;24.00;;;;;;;2.34;77.53;99233.00;1774719;79;21175;-61
2021/03/02 07:57:21;;;;;;;29.15;23.25;;;;;;;2.31;77.29;99235.26;1816486;77;21433;-61
2021/03/02 08:00:19;;;;;;;34.90;23.90;;;;;;;2.27;77.15;99239.31;1740038;80;21683;-60
2021/03/02 08:03:24;;;;;;;36.75;25.95;;;;;;;2.25;77.53;99233.42;1811651;79;20919;-61
2021/03/02 08:06:06;;;;;;;34.53;25.02;;;;;;;2.32;77.74;99229.75;1817421;79;21082;-61
2021/03/02 08:08:42;;;;;;;34.30;24.10;;;;;;;2.52;77.28;99230.49;1878060;76;22258;-60
2021/03/02 08:11:30;;;;;;;32.85;24.95;;;;;;;2.58;77.00;99228.35;1851665;77;21453;-59
2021/03/02 08:14:01;;;;;;;33.20;25.65;;;;;;;2.57;76.95;99233.33;1824422;76;22487;-60
2021/03/02 08:17:00;;;;;;;35.78;25.55;;;;;;;2.60;76.84;99230.27;1838521;77;21130;-60
2021/03/02 08:19:41;;;;;;;34.60;26.75;;;;;;;2.63;76.73;99223.25;1838420;77;20923;-61
2021/03/02 08:22:26;;;;;;;35.25;26.05;;;;;;;2.66;76.48;99225.45;1818342;78;20970;-60
2021/03/02 08:25:02;;;;;;;33.85;25.35;;;;;;;2.72;76.07;99223.31;1818720;78;20967;-60
2021/03/02 08:30:33;;;;;;;36.20;26.90;;;;;;;2.95;75.90;99217.49;1912686;74;23453;-61
2021/03/02 08:33:11;;;;;;;34.92;25.82;;;;;;;2.97;75.75;99214.66;1852539;77;21020;-63
2021/03/02 08:35:41;;;;;;;39.38;25.52;;;;;;;3.08;75.50;99215.30;1851787;77;21190;-63
2021/03/02 08:38:13;;;;;;;30.25;23.47;;;;;;;3.28;75.19;99212.00;1851628;77;21108;-62
2021/03/02 08:40:45;;;;;;;37.48;26.33;;;;;;;3.42;74.92;99209.56;1852508;77;20950;-62
2021/03/02 08:43:20;;;;;;;35.55;26.77;;;;;;;3.49;74.45;99215.63;1852392;77;20947;-61
2021/03/02 08:45:56;;;;;;;36.03;26.42;;;;;;;3.53;74.21;99222.14;1852241;77;20915;-59
2021/03/02 08:48:28;;;;;;;38.42;26.57;;;;;;;3.58;74.06;99216.98;1842585;77;21139;-59
2021/03/02 08:51:06;;;;;;;32.95;25.70;;;;;;;3.66;73.60;99209.28;1837048;77;21025;-60
2021/03/02 08:53:49;;;;;;;35.45;24.75;;;;;;;3.73;72.84;99206.88;1835719;76;20991;-60
2021/03/02 08:56:23;;;;;;;35.92;25.90;;;;;;;3.78;72.58;99200.92;1817710;78;21187;-61
2021/03/02 08:59:11;;;;;;;36.93;26.65;;;;;;;3.87;72.45;99191.67;1832436;76;21204;-60
2021/03/02 09:01:39;;;;;;;37.13;25.00;;;;;;;3.99;72.03;99200.02;1772955;79;21363;-59
2021/03/02 09:04:15;;;;;;;35.40;24.57;;;;;;;4.11;71.59;99183.69;1805921;79;21208;-60
2021/03/02 09:06:49;;;;;;;32.03;23.30;;;;;;;4.12;71.61;99180.53;1806709;77;20987;-64
2021/03/02 09:09:19;;;;;;;27.58;20.88;;;;;;;4.17;70.37;99182.52;1857372;77;21166;-58
2021/03/02 09:11:54;;;;;;;31.02;24.45;;;;;;;4.11;70.11;99195.63;1838839;76;21567;-60
2021/03/02 09:14:33;;;;;;;33.05;23.45;;;;;;;4.04;70.11;99191.41;1847366;77;22090;-64
2021/03/02 09:17:07;;;;;;;30.08;22.90;;;;;;;3.99;70.35;99197.37;1844353;77;21192;-59
2021/03/02 09:19:41;;;;;;;32.48;24.27;;;;;;;4.04;70.53;99210.78;1832302;76;21520;-59
2021/03/02 09:22:12;;;;;;;30.65;23.70;;;;;;;4.12;70.52;99203.06;1825121;77;21160;-61
2021/03/02 09:24:57;;;;;;;33.75;25.70;;;;;;;4.19;70.53;99205.64;1841875;76;21063;-60
2021/03/02 09:27:32;;;;;;;33.92;25.08;;;;;;;4.23;70.06;99199.68;1841188;77;21365;-61
2021/03/02 09:30:07;;;;;;;34.48;24.57;;;;;;;4.25;69.84;99188.84;1835573;76;21132;-61
2021/03/02 09:32:36;;;;;;;32.20;24.12;;;;;;;4.25;69.93;99196.80;1827400;77;20998;-61
2021/03/02 09:35:10;;;;;;;30.10;22.37;;;;;;;4.24;69.76;99195.98;1839901;77;21500;-59
2021/03/02 09:37:53;;;;;;;31.33;24.85;;;;;;;4.28;69.29;99191.06;1860340;76;22434;-61
2021/03/02 09:40:42;;;;;;;28.20;21.40;;;;;;;4.18;69.32;99192.08;1814651;77;21885;-59
2021/03/02 09:43:10;;;;;;;31.68;22.52;;;;;;;4.17;69.19;99190.47;1825213;77;21402;-61
2021/03/02 09:45:38;;;;;;;39.90;23.70;;;;;;;4.14;69.45;99187.20;1849074;77;21188;-63
2021/03/02 09:48:13;;;;;;;31.68;22.70;;;;;;;4.18;69.74;99184.94;1838225;78;21505;-60
2021/03/02 09:50:42;;;;;;;32.08;23.95;;;;;;;4.29;69.29;99186.03;1830494;77;21534;-61
2021/03/02 09:53:16;;;;;;;30.27;24.63;;;;;;;4.35;69.36;99197.10;1842477;77;20962;-60
2021/03/02 09:58:25;;;;;;;33.92;25.62;;;;;;;4.60;69.69;99189.86;1876865;76;22794;-60
2021/03/02 10:00:59;;;;;;;31.82;24.52;;;;;;;4.73;69.45;99183.86;1852272;77;21481;-60
2021/03/02 10:03:37;;;;;;;30.97;25.05;;;;;;;4.82;68.91;99193.68;1782861;80;21492;-60
2021/03/02 10:06:06;;;;;;;32.67;24.25;;;;;;;4.82;68.72;99187.05;1778692;79;21062;-60
2021/03/02 10:08:40;;;;;;;34.80;24.45;;;;;;;4.86;69.29;99194.84;1780233;79;21184;-61
2021/03/02 10:11:17;;;;;;;33.00;23.38;;;;;;;5.00;68.68;99200.27;1781700;79;21074;-59
2021/03/02 10:13:59;;;;;;;31.82;24.18;;;;;;;5.08;67.95;99202.63;1804525;78;21650;-60
2021/03/02 10:16:37;;;;;;;32.55;23.87;;;;;;;5.12;67.51;99195.00;1745469;80;22862;-61
2021/03/02 10:19:19;;;;;;;35.80;26.20;;;;;;;5.13;67.51;99206.74;1783176;79;21040;-59
2021/03/02 10:21:56;;;;;;;32.75;24.98;;;;;;;5.11;67.27;99199.49;1797990;79;21135;-59
2021/03/02 10:24:38;;;;;;;31.73;24.18;;;;;;;5.14;67.24;99185.77;1786095;79;21014;-60
2021/03/02 10:27:15;;;;;;;30.65;24.35;;;;;;;5.22;67.32;99190.77;1796841;79;21907;-59
2021/03/02 10:29:46;;;;;;;32.70;23.52;;;;;;;5.27;66.78;99193.56;1797055;79;22043;-60
2021/03/02 10:32:17;;;;;;;34.05;25.37;;;;;;;5.26;66.68;99182.63;1796909;79;21211;-60
2021/03/02 10:34:46;;;;;;;30.30;24.47;;;;;;;5.21;66.49;99193.13;1789277;79;21172;-59
2021/03/02 10:37:15;;;;;;;34.43;24.35;;;;;;;5.20;66.88;99200.81;1765410;81;21219;-60
2021/03/02 10:39:45;;;;;;;30.75;23.85;;;;;;;5.28;66.77;99195.16;1764439;79;21787;-61
2021/03/02 10:42:13;;;;;;;33.98;25.27;;;;;;;5.36;66.29;99184.73;1765630;81;21921;-59
2021/03/02 10:44:41;;;;;;;29.63;22.90;;;;;;;5.35;66.11;99181.78;1770816;79;21207;-59
2021/03/02 10:47:10;;;;;;;32.78;25.02;;;;;;;5.34;66.06;99177.01;1789619;79;21168;-59
2021/03/02 10:49:38;;;;;;;36.35;25.02;;;;;;;5.36;66.66;99181.56;1787962;79;21541;-59
2021/03/02 10:52:09;;;;;;;31.55;23.52;;;;;;;5.46;66.53;99178.36;1798079;79;21033;-58
2021/03/02 10:54:37;;;;;;;37.17;25.55;;;;;;;5.50;66.18;99164.38;1797605;79;22427;-61
2021/03/02 10:57:06;;;;;;;32.42;24.98;;;;;;;5.59;66.33;99162.70;1786211;79;21605;-60
2021/03/02 10:59:34;;;;;;;31.07;24.23;;;;;;;5.70;65.29;99161.38;1783778;78;21198;-60
2021/03/02 11:02:04;;;;;;;33.70;24.23;;;;;;;5.78;65.19;99162.89;1817747;78;21133;-60
2021/03/02 11:04:33;;;;;;;30.82;23.12;;;;;;;5.85;65.07;99153.80;1817698;78;21156;-58
2021/03/02 11:07:05;;;;;;;32.35;23.87;;;;;;;6.01;65.53;99158.92;1818037;78;21134;-59
2021/03/02 11:09:40;;;;;;;32.03;24.17;;;;;;;6.21;63.81;99150.06;1817813;78;21551;-62
2021/03/02 11:12:09;;;;;;;32.28;23.92;;;;;;;6.28;62.66;99160.06;1818984;77;21148;-59
2021/03/02 11:14:37;;;;;;;34.60;24.40;;;;;;;6.26;62.86;99154.17;1846460;77;21194;-61
2021/03/02 11:17:05;;;;;;;34.70;25.20;;;;;;;6.31;63.43;99156.94;1849692;77;21556;-61
2021/03/02 11:19:35;;;;;;;32.20;25.17;;;;;;;6.46;62.96;99150.58;1849744;77;21072;-61
2021/03/02 11:22:06;;;;;;;31.12;23.90;;;;;;;6.63;63.26;99145.33;1841804;77;21109;-63
2021/03/02 11:24:35;;;;;;;31.17;23.05;;;;;;;6.70;61.94;99136.67;1839402;77;21169;-60
2021/03/02 11:27:05;;;;;;;31.37;24.10;;;;;;;6.79;61.96;99124.08;1844446;77;21128;-60
2021/03/02 11:29:36;;;;;;;29.37;24.47;;;;;;;6.96;62.15;99128.62;1835221;77;21169;-61
2021/03/02 11:32:05;;;;;;;28.25;21.97;;;;;;;7.11;61.31;99122.25;1835213;77;21326;-59
2021/03/02 11:34:35;;;;;;;30.00;23.65;;;;;;;7.22;60.78;99116.85;1834675;78;21624;-62
2021/03/02 11:37:07;;;;;;;30.55;24.90;;;;;;;7.33;60.23;99107.15;1834866;77;21613;-61
2021/03/02 11:39:37;;;;;;;28.30;23.02;;;;;;;7.32;58.95;99105.55;1834916;78;21110;-58
2021/03/02 11:42:05;;;;;;;33.92;24.70;;;;;;;7.26;58.78;99092.66;1835021;77;21152;-62
2021/03/02 11:44:36;;;;;;;27.32;22.25;;;;;;;7.21;58.98;99093.91;1834768;78;22207;-60
2021/03/02 11:47:07;;;;;;;29.48;24.00;;;;;;;7.19;59.11;99083.20;1842552;77;21191;-60
2021/03/02 11:49:36;;;;;;;33.58;24.15;;;;;;;7.27;58.14;99094.29;1839637;77;21211;-59
2021/03/02 11:52:06;;;;;;;28.12;22.48;;;;;;;7.28;57.25;99089.73;1836876;77;21671;-57
2021/03/02 11:54:35;;;;;;;26.10;21.90;;;;;;;7.22;57.77;99089.39;1855530;77;21167;-61
2021/03/02 11:57:03;;;;;;;27.02;22.75;;;;;;;7.26;58.29;99097.98;1855077;77;21195;-61
2021/03/02 11:59:32;;;;;;;26.52;20.97;;;;;;;7.35;57.21;99085.05;1856196;77;21176;-62
2021/03/02 12:02:00;;;;;;;30.05;22.15;;;;;;;7.44;56.91;99084.95;1823515;77;21595;-60
2021/03/02 12:04:30;;;;;;;32.50;23.30;;;;;;;7.47;56.72;99080.45;1857405;77;21580;-63
2021/03/02 12:07:00;;;;;;;25.88;21.25;;;;;;;7.53;56.47;99094.16;1824233;77;21171;-60
2021/03/02 12:09:32;;;;;;;29.12;21.40;;;;;;;7.63;56.62;99090.28;1857108;77;22072;-58
2021/03/02 12:12:01;;;;;;;25.70;20.40;;;;;;;7.75;56.64;99088.33;1850298;77;21308;-60
2021/03/02 12:14:30;;;;;;;27.07;20.75;;;;;;;7.98;57.03;99085.47;1850504;77;21283;-59
2021/03/02 12:16:58;;;;;;;25.52;20.52;;;;;;;8.29;55.97;99088.55;1827271;77;22222;-62
2021/03/02 12:19:27;;;;;;;26.45;21.23;;;;;;;8.46;54.34;99086.59;1831237;77;21597;-61
2021/03/02 12:21:55;;;;;;;26.95;20.60;;;;;;;8.44;54.01;99090.05;1840325;77;22067;-59
2021/03/02 12:24:24;;;;;;;27.77;21.68;;;;;;;8.39;53.75;99081.98;1847392;77;21969;-60
2021/03/02 12:26:52;;;;;;;26.45;22.48;;;;;;;8.32;53.78;99082.70;1851519;77;21517;-58
2021/03/02 12:29:20;;;;;;;27.17;20.62;;;;;;;8.27;53.51;99071.98;1851870;77;21560;-61
2021/03/02 12:31:48;;;;;;;27.13;20.23;;;;;;;8.25;53.80;99074.33;1849213;77;21504;-63
2021/03/02 12:34:16;;;;;;;26.95;19.77;;;;;;;8.29;53.86;99070.66;1818361;77;22083;-59
2021/03/02 12:36:45;;;;;;;24.67;20.23;;;;;;;8.42;54.13;99077.48;1818097;79;21595;-61
2021/03/02 12:39:16;;;;;;;26.27;21.33;;;;;;;8.67;52.88;99076.41;1818069;77;21639;-61
2021/03/02 12:41:46;;;;;;;23.40;19.98;;;;;;;8.75;52.43;99071.45;1831431;77;20993;-60
2021/03/02 12:44:14;;;;;;;25.65;20.50;;;;;;;8.82;52.92;99072.58;1857904;77;21077;-62
2021/03/02 12:46:42;;;;;;;27.05;21.20;;;;;;;8.89;52.62;99067.83;1857867;77;22145;-62
2021/03/02 12:49:13;;;;;;;26.87;20.92;;;;;;;8.99;51.89;99065.78;1857621;77;21615;-60
2021/03/02 12:51:42;;;;;;;26.25;20.23;;;;;;;9.05;51.48;99072.25;1857665;77;21603;-60
2021/03/02 12:54:11;;;;;;;27.25;20.75;;;;;;;9.04;52.06;99065.83;1857681;77;21584;-60
2021/03/02 12:56:39;;;;;;;25.52;22.05;;;;;;;9.08;51.47;99062.40;1857737;77;20875;-62
2021/03/02 12:59:08;;;;;;;26.33;21.80;;;;;;;9.00;51.65;99066.86;1850021;77;22202;-61
2021/03/02 13:01:37;;;;;;;25.95;20.75;;;;;;;8.92;51.32;99064.14;1828828;77;21652;-59
2021/03/02 13:04:07;;;;;;;24.18;19.82;;;;;;;8.80;51.67;99057.33;1802151;79;22118;-60
2021/03/02 13:06:38;;;;;;;27.05;19.82;;;;;;;8.75;52.49;99058.61;1802201;79;21223;-59
2021/03/02 13:09:07;;;;;;;28.62;21.00;;;;;;;8.91;52.85;99060.37;1802252;79;21188;-61
2021/03/02 13:11:35;;;;;;;27.30;21.17;;;;;;;9.05;51.66;99064.23;1802094;78;21415;-60
2021/03/02 13:14:04;;;;;;;26.93;21.68;;;;;;;9.06;51.60;99056.50;1814202;76;21197;-60
2021/03/02 13:16:33;;;;;;;26.57;20.45;;;;;;;9.10;51.52;99038.89;1791103;76;21182;-59
2021/03/02 13:19:10;;;;;;;26.65;20.70;;;;;;;9.09;51.97;99050.63;1787609;78;21609;-65
2021/03/02 13:21:39;;;;;;;27.93;21.80;;;;;;;9.15;52.11;99046.95;1791308;80;26615;-59
2021/03/02 13:24:07;;;;;;;26.00;20.15;;;;;;;9.10;51.78;99046.91;1793890;80;21433;-59
2021/03/02 13:26:36;;;;;;;25.85;21.80;;;;;;;9.11;52.07;99047.20;1776789;80;21220;-59
2021/03/02 13:29:11;;;;;;;28.70;21.33;;;;;;;9.24;52.11;99042.74;1776855;80;21175;-60
2021/03/02 13:31:40;;;;;;;27.95;22.65;;;;;;;9.37;51.30;99047.64;1780604;79;21516;-62
2021/03/02 13:34:14;;;;;;;29.00;22.37;;;;;;;9.42;51.35;99033.53;1764150;81;21594;-59
2021/03/02 13:36:44;;;;;;;27.20;20.27;;;;;;;9.35;51.26;99036.40;1775249;80;21371;-61
2021/03/02 13:39:16;;;;;;;26.82;20.72;;;;;;;9.34;51.77;99038.00;1774588;78;21183;-58
2021/03/02 13:41:48;;;;;;;29.85;21.87;;;;;;;9.32;51.47;99042.28;1792549;78;21183;-58
2021/03/02 13:44:18;;;;;;;28.45;23.47;;;;;;;9.28;51.85;99042.50;1790223;78;21780;-63
2021/03/02 13:46:50;;;;;;;27.60;22.62;;;;;;;9.25;52.06;99032.34;1793612;80;21214;-60
2021/03/02 13:49:20;;;;;;;27.87;22.70;;;;;;;9.13;51.49;99042.40;1794644;78;21365;-58
2021/03/02 13:51:49;;;;;;;26.82;22.07;;;;;;;9.02;52.07;99043.35;1794544;80;21650;-62
2021/03/02 13:54:17;;;;;;;27.25;22.42;;;;;;;8.93;52.39;99044.88;1780433;80;21091;-61
2021/03/02 13:56:45;;;;;;;32.15;22.93;;;;;;;8.95;52.67;99038.75;1794237;80;21634;-60
2021/03/02 13:59:14;;;;;;;28.57;23.40;;;;;;;8.97;52.72;99046.01;1765995;80;21373;-58
2021/03/02 14:01:43;;;;;;;30.68;23.18;;;;;;;9.01;52.87;99044.95;1791722;80;21222;-60
2021/03/02 14:04:12;;;;;;;32.93;23.65;;;;;;;9.04;52.99;99045.80;1794499;80;21203;-60
2021/03/02 14:06:40;;;;;;;31.20;23.87;;;;;;;9.02;52.88;99046.02;1795236;80;20930;-61
2021/03/02 14:09:10;;;;;;;31.48;23.12;;;;;;;8.93;52.95;99039.54;1786619;78;22324;-63
2021/03/02 14:11:43;;;;;;;27.02;22.70;;;;;;;8.79;53.31;99033.81;1779166;80;21093;-60
2021/03/02 14:14:11;;;;;;;34.40;24.00;;;;;;;8.63;53.58;99025.91;1773599;80;21381;-59
2021/03/02 14:16:40;;;;;;;30.27;21.95;;;;;;;8.49;53.87;99032.70;1762889;80;21642;-59
2021/03/02 14:19:08;;;;;;;28.70;21.00;;;;;;;8.36;54.44;99027.77;1807220;78;21595;-59
2021/03/02 14:21:37;;;;;;;31.65;22.85;;;;;;;8.26;54.73;99037.81;1764247;80;21626;-58
2021/03/02 14:24:08;;;;;;;34.03;24.18;;;;;;;8.18;55.11;99023.52;1757739;81;21610;-59
2021/03/02 14:26:37;;;;;;;32.10;23.87;;;;;;;8.10;55.43;99030.10;1757780;81;21223;-59
2021/03/02 14:29:05;;;;;;;34.73;23.38;;;;;;;8.09;55.81;99027.17;1757241;81;21250;-64
2021/03/02 14:31:35;;;;;;;32.42;24.07;;;;;;;8.09;56.05;99028.51;1727493;81;21184;-61
2021/03/02 14:34:03;;;;;;;32.00;24.10;;;;;;;8.08;56.00;99026.88;1754020;80;21495;-60
2021/03/02 14:36:32;;;;;;;32.80;23.95;;;;;;;8.02;56.06;99027.89;1759025;81;21080;-58
2021/03/02 14:39:00;;;;;;;32.33;24.25;;;;;;;7.95;56.40;99027.27;1759053;81;22180;-58
2021/03/02 14:41:30;;;;;;;30.80;23.38;;;;;;;7.92;56.55;99028.27;1758366;81;21769;-58
2021/03/02 14:44:01;;;;;;;33.13;23.65;;;;;;;7.86;56.75;99029.28;1758231;81;21149;-60
2021/03/02 14:46:33;;;;;;;31.62;22.58;;;;;;;7.83;56.60;99022.58;1759055;81;21481;-62
2021/03/02 14:49:05;;;;;;;30.57;23.30;;;;;;;7.80;56.64;99027.06;1759053;81;21509;-60
2021/03/02 15:49:55;;;;;;;34.43;22.93;;;;;;;5.50;63.90;99060.74;1890124;76;22575;-63
2021/03/02 15:52:24;;;;;;;33.33;22.82;;;;;;;5.40;63.91;99063.16;1856164;77;20919;-62
2021/03/02 15:54:53;;;;;;;30.30;22.40;;;;;;;5.38;64.32;99067.90;1861250;77;21998;-64
2021/03/02 15:57:21;;;;;;;28.52;22.05;;;;;;;5.37;64.51;99066.27;1860960;77;21069;-61
2021/03/02 15:59:48;;;;;;;27.48;20.97;;;;;;;5.39;64.51;99068.72;1860904;77;21492;-62
2021/03/02 16:02:31;;;;;;;30.35;21.57;;;;;;;5.38;64.72;99070.55;1860983;77;21515;-58
2021/03/02 16:05:06;;;;;;;33.13;23.95;;;;;;;5.36;64.73;99060.68;1861007;77;21425;-63
2021/03/02 16:07:44;;;;;;;31.77;23.20;;;;;;;5.35;65.01;99066.20;1861026;77;21364;-60
2021/03/02 16:10:14;;;;;;;30.75;22.75;;;;;;;5.34;65.02;99073.91;1860983;77;21456;-60
2021/03/02 16:12:46;;;;;;;35.52;23.87;;;;;;;5.31;65.17;99073.03;1861030;77;20914;-59
2021/03/02 16:15:15;;;;;;;33.58;22.77;;;;;;;5.25;65.34;99080.05;1860840;77;21183;-58
2021/03/02 16:17:45;;;;;;;34.33;23.45;;;;;;;5.23;65.56;99085.34;1861052;77;21460;-62
2021/03/02 16:20:24;;;;;;;31.90;23.52;;;;;;;5.22;65.80;99083.19;1861212;77;21479;-61
2021/03/02 16:23:07;;;;;;;28.62;22.15;;;;;;;5.20;65.89;99083.95;1860481;76;21437;-61
2021/03/02 16:25:35;;;;;;;36.20;24.10;;;;;;;5.20;66.01;99083.95;1861004;77;21033;-59
2021/03/02 16:28:06;;;;;;;35.03;22.60;;;;;;;5.17;66.15;99089.70;1860928;77;20942;-57
2021/03/02 16:30:35;;;;;;;33.13;25.50;;;;;;;5.16;66.17;99090.73;1860961;77;20971;-58
2021/03/02 16:33:05;;;;;;;29.50;22.50;;;;;;;5.14;66.40;99088.83;1860947;77;22033;-60
2021/03/02 16:35:33;;;;;;;30.97;22.90;;;;;;;5.10;66.58;99096.97;1860952;77;20875;-61
2021/03/02 16:38:01;;;;;;;34.70;24.37;;;;;;;5.05;66.66;99104.80;1801859;77;21444;-60
2021/03/02 16:40:29;;;;;;;28.62;21.33;;;;;;;5.01;67.09;99099.67;1801817;77;21451;-59
2021/03/02 16:42:57;;;;;;;29.82;21.62;;;;;;;5.00;67.08;99096.71;1801488;77;21543;-59
2021/03/02 16:45:25;;;;;;;30.37;24.70;;;;;;;4.97;67.30;99101.14;1855703;77;22517;-63
2021/03/02 16:47:54;;;;;;;34.78;24.27;;;;;;;4.93;67.62;99102.64;1859824;77;21496;-57
2021/03/02 16:50:29;;;;;;;29.98;21.82;;;;;;;4.93;67.63;99104.48;1849402;77;21301;-58
2021/03/02 16:53:02;;;;;;;29.57;21.68;;;;;;;4.91;67.84;99110.53;1827566;77;21539;-58
2021/03/02 16:55:44;;;;;;;31.12;22.27;;;;;;;4.89;68.01;99108.63;1849443;77;21453;-59
2021/03/02 16:58:39;;;;;;;31.10;22.22;;;;;;;4.88;68.08;99113.63;1849437;77;22246;-58
2021/03/02 17:01:29;;;;;;;33.65;23.25;;;;;;;4.85;68.30;99118.36;1817402;77;21519;-59
2021/03/02 17:03:59;;;;;;;29.82;22.90;;;;;;;4.84;68.31;99122.58;1815520;79;21532;-62
2021/03/02 17:06:30;;;;;;;29.98;22.52;;;;;;;4.80;68.55;99124.08;1815385;79;21026;-57
2021/03/02 17:09:03;;;;;;;32.85;22.35;;;;;;;4.79;68.82;99116.63;1815415;79;21532;-59
2021/03/02 17:11:33;;;;;;;32.28;24.02;;;;;;;4.80;68.81;99122.75;1793686;79;21314;-61
2021/03/02 17:14:03;;;;;;;32.13;22.98;;;;;;;4.79;68.96;99115.81;1815321;79;21532;-59
2021/03/02 17:16:31;;;;;;;30.85;22.75;;;;;;;4.78;68.99;99118.19;1815445;79;21444;-59
2021/03/02 17:19:00;;;;;;;33.48;22.58;;;;;;;4.77;69.00;99121.87;1816190;79;21437;-58
2021/03/02 17:21:28;;;;;;;32.67;23.12;;;;;;;4.75;69.19;99119.96;1815485;79;21152;-58
2021/03/02 17:23:56;;;;;;;34.70;24.10;;;;;;;4.74;69.32;99121.80;1815194;79;21888;-59
2021/03/02 17:26:25;;;;;;;34.85;23.32;;;;;;;4.73;69.34;99114.86;1815298;79;21840;-58
2021/03/02 17:28:53;;;;;;;35.92;24.82;;;;;;;4.73;69.39;99119.38;1815478;79;21324;-60
2021/03/02 17:31:21;;;;;;;38.50;24.43;;;;;;;4.72;69.47;99116.42;1815364;79;21089;-62
2021/03/02 17:33:50;;;;;;;32.20;23.70;;;;;;;4.71;69.58;99113.48;1815500;77;21097;-60
2021/03/02 17:36:20;;;;;;;29.95;21.93;;;;;;;4.71;69.59;99113.48;1815452;79;21374;-60
2021/03/02 17:38:48;;;;;;;33.92;23.85;;;;;;;4.70;69.66;99107.88;1815375;79;21200;-59
2021/03/02 17:41:17;;;;;;;32.58;24.15;;;;;;;4.69;69.61;99108.90;1815366;79;21541;-61
2021/03/02 17:43:45;;;;;;;32.03;24.52;;;;;;;4.67;69.67;99106.99;1815463;77;21237;-61
2021/03/02 17:46:14;;;;;;;31.95;22.50;;;;;;;4.65;69.81;99113.05;1815657;79;21461;-62
2021/03/02 17:48:43;;;;;;;28.70;23.57;;;;;;;4.65;69.78;99113.86;1844650;77;21447;-62
2021/03/02 17:51:12;;;;;;;32.42;23.15;;;;;;;4.62;69.87;99120.12;1849358;77;20931;-58
2021/03/02 17:53:41;;;;;;;32.23;24.70;;;;;;;4.59;69.96;99116.07;1849463;77;21480;-62
2021/03/02 17:56:09;;;;;;;32.65;23.42;;;;;;;4.57;70.06;99121.34;1849294;77;21549;-62
2021/03/02 17:58:37;;;;;;;33.30;24.02;;;;;;;4.56;70.08;99126.34;1849337;77;21160;-60
2021/03/02 18:01:06;;;;;;;32.60;22.40;;;;;;;4.53;70.17;99132.08;1849409;77;21562;-57
2021/03/02 18:03:34;;;;;;;34.00;23.38;;;;;;;4.53;70.20;99135.55;1849342;77;21504;-62
